Time;durP1;ratioP1;P1;durP2;ratioP2;P2;SDS_P1;SDS_P2;PMS_P1;PMS_P2;Temp;Humidity;BMP_temperature;BMP_pressure;BME280_temperature;BME280_humidity;BME280_pressure;Samples;Min_cycle;Max_cycle;Signal;HPM_P1;HPM_P2
2023/07/11 00:00:04;;;;;;;7.00;4.30;;;;;;;;;;5038139;28;20199;-89
2023/07/11 00:02:30;;;;;;;9.27;4.00;;;;;;;;;;5055878;28;20175;-89
2023/07/11 00:05:00;;;;;;;6.55;3.65;;;;;;;;;;5055023;28;20191;-89
2023/07/11 00:07:27;;;;;;;9.18;4.07;;;;;;;;;;5057043;28;20179;-88
2023/07/11 00:09:53;;;;;;;7.72;4.07;;;;;;;;;;5056333;28;20274;-89
2023/07/11 00:12:28;;;;;;;6.13;4.22;;;;;;;;;;5056483;28;20183;-89
2023/07/11 00:14:57;;;;;;;6.10;4.27;;;;;;;;;;5039270;28;20187;-89
2023/07/11 00:17:24;;;;;;;9.10;3.95;;;;;;;;;;5055768;28;20183;-88
2023/07/11 00:19:51;;;;;;;6.28;4.57;;;;;;;;;;5042698;28;20187;-88
2023/07/11 00:22:21;;;;;;;9.35;4.25;;;;;;;;;;5055182;28;20183;-89
2023/07/11 00:24:48;;;;;;;8.48;4.45;;;;;;;;;;5054396;28;20235;-88
2023/07/11 00:27:18;;;;;;;7.17;4.20;;;;;;;;;;5055584;28;20180;-89
2023/07/11 00:29:45;;;;;;;9.13;4.43;;;;;;;;;;5054670;28;20274;-89
2023/07/11 00:32:11;;;;;;;7.55;3.88;;;;;;;;;;5055362;28;20274;-88
2023/07/11 00:34:40;;;;;;;7.73;4.57;;;;;;;;;;5054727;28;20239;-89
2023/07/11 00:37:08;;;;;;;7.67;4.10;;;;;;;;;;5047556;28;20222;-88
2023/07/11 00:39:38;;;;;;;6.57;4.10;;;;;;;;;;5054642;28;20179;-89
2023/07/11 00:42:09;;;;;;;5.60;4.05;;;;;;;;;;5052289;28;20207;-89
2023/07/11 00:44:51;;;;;;;8.13;4.37;;;;;;;;;;5039302;28;20212;-88
2023/07/11 00:47:18;;;;;;;7.33;4.23;;;;;;;;;;5051921;28;20191;-88
2023/07/11 00:49:47;;;;;;;9.07;4.07;;;;;;;;;;5046687;28;20217;-89
2023/07/11 00:52:15;;;;;;;9.20;4.23;;;;;;;;;;5055723;28;20186;-89
2023/07/11 00:54:46;;;;;;;9.57;4.47;;;;;;;;;;5054780;28;20186;-88
2023/07/11 00:57:14;;;;;;;7.73;4.50;;;;;;;;;;5055396;28;20186;-89
2023/07/11 00:59:51;;;;;;;6.47;4.20;;;;;;;;;;5058376;28;20179;-89
2023/07/11 01:02:22;;;;;;;6.73;4.20;;;;;;;;;;5055154;28;20183;-89
2023/07/11 01:04:51;;;;;;;7.80;4.00;;;;;;;;;;5050194;28;20184;-89
2023/07/11 01:07:28;;;;;;;8.00;4.00;;;;;;;;;;5052791;28;20179;-89
2023/07/11 01:09:54;;;;;;;5.93;4.00;;;;;;;;;;5057935;28;20215;-89
2023/07/11 01:12:29;;;;;;;8.07;4.20;;;;;;;;;;5046361;28;20184;-89
2023/07/11 01:14:56;;;;;;;5.17;4.13;;;;;;;;;;5055589;28;20186;-90
2023/07/11 01:17:53;;;;;;;6.97;4.17;;;;;;;;;;5059098;28;20183;-89
2023/07/11 01:20:22;;;;;;;5.00;3.80;;;;;;;;;;5068512;28;20198;-89
2023/07/11 01:22:52;;;;;;;5.47;3.60;;;;;;;;;;5059045;28;20190;-89
2023/07/11 01:25:21;;;;;;;4.93;3.90;;;;;;;;;;5057610;28;20258;-88
2023/07/11 01:27:51;;;;;;;5.47;4.07;;;;;;;;;;5058596;28;20199;-89
2023/07/11 01:30:19;;;;;;;7.70;4.57;;;;;;;;;;5050025;28;20293;-89
2023/07/11 01:32:51;;;;;;;7.90;4.20;;;;;;;;;;5055561;28;20274;-88
2023/07/11 01:35:17;;;;;;;10.13;4.07;;;;;;;;;;5058359;28;20273;-89
2023/07/11 01:37:46;;;;;;;8.03;4.40;;;;;;;;;;5059648;28;20171;-90
2023/07/11 01:40:13;;;;;;;9.20;4.10;;;;;;;;;;5058227;28;20195;-89
2023/07/11 01:42:49;;;;;;;6.40;4.23;;;;;;;;;;5058857;28;20179;-89
2023/07/11 01:45:18;;;;;;;5.57;3.90;;;;;;;;;;5058261;28;20210;-89
2023/07/11 01:47:45;;;;;;;7.50;4.13;;;;;;;;;;5054602;28;20175;-89
2023/07/11 01:50:13;;;;;;;8.17;4.57;;;;;;;;;;5056134;28;20215;-89
2023/07/11 01:52:44;;;;;;;9.83;4.30;;;;;;;;;;5058699;28;20197;-89
2023/07/11 01:55:11;;;;;;;8.03;4.20;;;;;;;;;;5057568;28;20187;-89
2023/07/11 01:57:39;;;;;;;6.87;4.00;;;;;;;;;;5057820;28;20194;-89
2023/07/11 02:00:07;;;;;;;6.47;4.23;;;;;;;;;;5073359;28;20199;-89
2023/07/11 02:02:40;;;;;;;9.60;4.13;;;;;;;;;;5057948;28;20194;-89
2023/07/11 02:05:07;;;;;;;8.83;4.13;;;;;;;;;;5057539;28;20222;-88
2023/07/11 02:07:36;;;;;;;7.07;4.27;;;;;;;;;;5058784;28;20187;-89
2023/07/11 02:10:05;;;;;;;7.17;4.53;;;;;;;;;;5044216;28;20219;-88
2023/07/11 02:12:34;;;;;;;10.33;4.43;;;;;;;;;;5049334;28;20275;-88
2023/07/11 02:15:00;;;;;;;9.37;4.70;;;;;;;;;;5051543;28;20188;-89
2023/07/11 02:17:26;;;;;;;9.50;4.70;;;;;;;;;;5050388;28;20201;-89
2023/07/11 02:19:53;;;;;;;8.43;4.60;;;;;;;;;;5051181;28;20270;-88
2023/07/11 02:22:22;;;;;;;5.47;4.00;;;;;;;;;;5047709;28;20176;-89
2023/07/11 02:24:48;;;;;;;8.53;4.50;;;;;;;;;;5046979;28;20223;-89
2023/07/11 02:27:15;;;;;;;8.70;4.20;;;;;;;;;;5046522;28;20187;-89
2023/07/11 02:29:43;;;;;;;6.97;4.00;;;;;;;;;;5051396;28;20256;-88
2023/07/11 02:32:09;;;;;;;6.53;3.70;;;;;;;;;;5079851;28;20187;-89
2023/07/11 02:34:35;;;;;;;7.97;4.10;;;;;;;;;;5057626;28;20255;-88
2023/07/11 02:37:04;;;;;;;7.33;4.20;;;;;;;;;;5037969;28;20188;-88
2023/07/11 02:39:30;;;;;;;6.57;4.30;;;;;;;;;;5039887;28;20202;-88
2023/07/11 02:41:56;;;;;;;9.20;4.20;;;;;;;;;;5053609;28;20179;-88
2023/07/11 02:44:32;;;;;;;6.00;3.70;;;;;;;;;;5047070;28;20188;-88
2023/07/11 02:46:58;;;;;;;5.43;3.90;;;;;;;;;;5049487;28;20191;-89
2023/07/11 02:49:48;;;;;;;8.43;4.13;;;;;;;;;;5054295;28;20211;-88
2023/07/11 02:52:13;;;;;;;6.93;4.10;;;;;;;;;;5065957;28;20191;-88
2023/07/11 02:54:39;;;;;;;5.63;4.07;;;;;;;;;;5048735;28;20259;-89
2023/07/11 02:57:25;;;;;;;6.07;3.83;;;;;;;;;;5055367;28;20186;-90
2023/07/11 02:59:51;;;;;;;6.37;3.90;;;;;;;;;;5055658;28;20175;-91
2023/07/11 03:02:23;;;;;;;9.53;4.10;;;;;;;;;;5043494;28;20191;-93
2023/07/11 03:04:49;;;;;;;5.97;3.63;;;;;;;;;;5049506;28;20180;-92
2023/07/11 03:07:15;;;;;;;6.93;3.97;;;;;;;;;;5049167;28;20187;-93
2023/07/11 03:09:44;;;;;;;4.93;3.60;;;;;;;;;;5040623;28;20203;-92
2023/07/11 03:12:10;;;;;;;7.23;4.20;;;;;;;;;;5043368;28;20176;-94
2023/07/11 03:14:43;;;;;;;10.43;4.07;;;;;;;;;;5054403;28;20175;-93
2023/07/11 03:17:12;;;;;;;6.70;3.70;;;;;;;;;;5049341;28;20262;-92
2023/07/11 03:19:41;;;;;;;4.77;3.70;;;;;;;;;;5034975;28;20183;-93
2023/07/11 03:22:07;;;;;;;4.40;3.90;;;;;;;;;;5051115;28;20190;-92
2023/07/11 03:24:33;;;;;;;8.43;4.23;;;;;;;;;;5034379;28;20227;-92
2023/07/11 03:27:02;;;;;;;6.23;3.77;;;;;;;;;;5032429;28;20191;-93
2023/07/11 03:29:28;;;;;;;7.87;3.97;;;;;;;;;;5037529;28;20200;-93
2023/07/11 03:31:56;;;;;;;6.20;4.10;;;;;;;;;;5037389;28;20176;-92
2023/07/11 03:34:25;;;;;;;6.07;3.63;;;;;;;;;;5037217;28;20191;-92
2023/07/11 03:36:51;;;;;;;6.53;3.90;;;;;;;;;;5037039;28;20180;-92
2023/07/11 03:39:17;;;;;;;7.97;4.20;;;;;;;;;;5034554;28;20217;-91
2023/07/11 03:41:46;;;;;;;7.67;4.23;;;;;;;;;;5025392;28;20242;-92
2023/07/11 03:44:12;;;;;;;4.97;3.80;;;;;;;;;;5034887;28;20184;-92
2023/07/11 03:46:46;;;;;;;5.47;4.13;;;;;;;;;;5032357;28;20187;-91
2023/07/11 03:49:14;;;;;;;8.70;4.10;;;;;;;;;;5035792;28;20254;-91
2023/07/11 03:51:42;;;;;;;7.07;4.30;;;;;;;;;;5031223;28;20212;-91
2023/07/11 03:54:16;;;;;;;7.17;4.20;;;;;;;;;;5036955;28;20176;-93
2023/07/11 03:56:42;;;;;;;9.47;4.20;;;;;;;;;;5036970;28;20182;-93
2023/07/11 03:59:08;;;;;;;8.03;4.13;;;;;;;;;;5037062;28;20215;-92
2023/07/11 04:01:35;;;;;;;6.87;4.33;;;;;;;;;;5035570;28;20271;-91
2023/07/11 04:04:03;;;;;;;9.00;4.10;;;;;;;;;;5036238;28;20188;-94
2023/07/11 04:06:29;;;;;;;5.73;4.00;;;;;;;;;;5035102;28;20211;-91
2023/07/11 04:09:01;;;;;;;6.53;4.40;;;;;;;;;;5016728;28;20231;-92
2023/07/11 04:11:27;;;;;;;6.57;4.10;;;;;;;;;;5032986;28;20179;-91
2023/07/11 04:13:56;;;;;;;6.37;3.90;;;;;;;;;;5036790;28;20222;-92
2023/07/11 04:16:24;;;;;;;8.03;4.13;;;;;;;;;;5035651;28;20180;-93
2023/07/11 04:18:51;;;;;;;9.30;4.17;;;;;;;;;;5035044;28;20180;-91
2023/07/11 04:21:17;;;;;;;4.60;3.87;;;;;;;;;;5033772;28;20207;-92
2023/07/11 04:23:47;;;;;;;7.17;4.03;;;;;;;;;;5034149;28;20219;-92
2023/07/11 04:26:13;;;;;;;7.13;4.07;;;;;;;;;;5045225;28;20184;-92
2023/07/11 04:28:40;;;;;;;9.57;3.97;;;;;;;;;;5044984;28;20199;-91
2023/07/11 04:31:09;;;;;;;7.50;3.97;;;;;;;;;;5034109;28;20207;-92
2023/07/11 04:33:35;;;;;;;5.30;3.57;;;;;;;;;;5036358;28;20176;-92
2023/07/11 04:36:10;;;;;;;7.57;4.17;;;;;;;;;;5044318;28;20170;-92
2023/07/11 04:38:47;;;;;;;8.83;3.87;;;;;;;;;;5054149;28;20171;-92
2023/07/11 04:41:22;;;;;;;7.50;4.07;;;;;;;;;;5041279;28;20180;-92
2023/07/11 04:43:48;;;;;;;6.27;3.90;;;;;;;;;;5040216;28;20207;-92
2023/07/11 04:46:19;;;;;;;8.90;4.60;;;;;;;;;;5042122;28;20172;-91
2023/07/11 04:48:51;;;;;;;7.43;3.90;;;;;;;;;;5047074;28;20175;-92
2023/07/11 04:51:20;;;;;;;8.67;4.00;;;;;;;;;;5039521;28;20207;-91
2023/07/11 04:53:48;;;;;;;7.17;4.00;;;;;;;;;;5024814;28;20226;-91
2023/07/11 04:56:15;;;;;;;8.07;3.83;;;;;;;;;;5036718;28;20168;-92
2023/07/11 04:58:41;;;;;;;7.20;3.67;;;;;;;;;;5047759;28;20175;-91
2023/07/11 05:01:11;;;;;;;13.43;4.47;;;;;;;;;;5048554;28;20179;-91
2023/07/11 05:03:38;;;;;;;8.57;3.83;;;;;;;;;;5049413;28;20278;-92
2023/07/11 05:06:04;;;;;;;10.50;4.47;;;;;;;;;;5045280;28;20184;-92
2023/07/11 05:08:31;;;;;;;9.33;4.30;;;;;;;;;;5044437;28;20266;-91
2023/07/11 05:11:01;;;;;;;10.97;4.60;;;;;;;;;;5045114;28;20250;-90
2023/07/11 05:13:30;;;;;;;8.37;4.10;;;;;;;;;;5043180;28;20268;-90
2023/07/11 05:16:00;;;;;;;8.50;4.00;;;;;;;;;;5042796;28;20191;-90
2023/07/11 05:18:26;;;;;;;7.77;3.73;;;;;;;;;;5028093;28;20179;-89
2023/07/11 05:20:53;;;;;;;10.53;4.10;;;;;;;;;;5040983;28;20180;-89
2023/07/11 05:23:19;;;;;;;9.87;4.00;;;;;;;;;;5031832;28;20189;-92
2023/07/11 05:25:45;;;;;;;8.37;3.70;;;;;;;;;;5046883;28;20310;-90
2023/07/11 05:28:16;;;;;;;7.60;3.70;;;;;;;;;;5048737;28;20207;-90
2023/07/11 05:30:42;;;;;;;8.93;3.67;;;;;;;;;;5047090;28;20211;-91
2023/07/11 05:33:08;;;;;;;8.00;3.73;;;;;;;;;;5047137;28;20182;-89
2023/07/11 05:36:31;;;;;;;8.43;3.80;;;;;;;;;;5046172;28;20199;-90
2023/07/11 05:38:38;;;;;;;15.87;4.30;;;;;;;;;;5036037;28;20187;-91
2023/07/11 05:41:04;;;;;;;6.60;3.80;;;;;;;;;;5046428;28;20241;-89
2023/07/11 05:43:30;;;;;;;7.10;3.93;;;;;;;;;;5050437;28;20215;-89
2023/07/11 05:45:58;;;;;;;6.63;3.60;;;;;;;;;;5047503;28;20258;-91
2023/07/11 05:48:24;;;;;;;7.40;3.70;;;;;;;;;;5043259;28;20186;-90
2023/07/11 05:51:00;;;;;;;5.33;3.67;;;;;;;;;;5039958;28;20208;-89
2023/07/11 05:53:27;;;;;;;7.57;4.00;;;;;;;;;;5038770;28;20186;-88
2023/07/11 05:55:57;;;;;;;5.87;3.73;;;;;;;;;;5050607;28;20187;-88
2023/07/11 05:58:29;;;;;;;6.43;3.70;;;;;;;;;;5056289;28;20187;-89
2023/07/11 06:00:59;;;;;;;6.27;3.80;;;;;;;;;;5054905;28;20286;-91
2023/07/11 06:03:29;;;;;;;7.83;3.80;;;;;;;;;;5052395;28;20187;-86
2023/07/11 06:06:00;;;;;;;6.77;3.60;;;;;;;;;;5045236;28;20179;-87
2023/07/11 06:08:29;;;;;;;6.80;3.80;;;;;;;;;;5039834;28;20190;-86
2023/07/11 06:11:02;;;;;;;9.27;3.90;;;;;;;;;;5039816;28;20208;-86
2023/07/11 06:13:32;;;;;;;8.80;3.80;;;;;;;;;;5054226;28;20187;-86
2023/07/11 06:16:03;;;;;;;6.77;3.63;;;;;;;;;;5058264;28;20179;-86
2023/07/11 06:18:30;;;;;;;7.60;4.07;;;;;;;;;;5041703;28;20184;-86
2023/07/11 06:20:56;;;;;;;5.13;3.87;;;;;;;;;;5050940;28;20191;-87
2023/07/11 06:23:22;;;;;;;6.37;3.70;;;;;;;;;;5038963;28;20184;-86
2023/07/11 06:25:49;;;;;;;10.80;4.10;;;;;;;;;;5022372;28;20188;-87
2023/07/11 06:28:15;;;;;;;7.10;3.53;;;;;;;;;;5057266;28;20280;-86
2023/07/11 06:30:47;;;;;;;5.53;3.60;;;;;;;;;;5040363;28;20211;-87
2023/07/11 06:33:14;;;;;;;7.83;3.60;;;;;;;;;;5057626;28;20210;-87
2023/07/11 06:35:56;;;;;;;7.40;3.33;;;;;;;;;;5031968;28;20190;-86
2023/07/11 06:38:22;;;;;;;8.40;3.57;;;;;;;;;;5056903;28;20175;-85
2023/07/11 06:40:55;;;;;;;9.80;3.53;;;;;;;;;;5050829;28;20195;-86
2023/07/11 06:43:22;;;;;;;9.37;3.63;;;;;;;;;;5038300;28;20271;-88
2023/07/11 06:45:54;;;;;;;7.97;3.50;;;;;;;;;;5069835;28;20198;-87
2023/07/11 06:48:23;;;;;;;6.87;3.40;;;;;;;;;;5047963;28;20292;-87
2023/07/11 06:53:54;;;;;;;7.33;3.30;;;;;;;;;;5075096;28;20174;-85
2023/07/11 06:56:42;;;;;;;10.23;3.40;;;;;;;;;;5040261;28;20197;-87
2023/07/11 06:59:08;;;;;;;5.23;3.07;;;;;;;;;;5067148;28;20175;-86
2023/07/11 07:01:42;;;;;;;10.50;3.80;;;;;;;;;;5056174;28;20225;-89
2023/07/11 07:04:14;;;;;;;8.60;3.63;;;;;;;;;;5041262;28;20183;-89
2023/07/11 07:10:13;;;;;;;5.30;3.17;;;;;;;;;;5071994;28;20245;-91
2023/07/11 07:15:57;;;;;;;7.53;3.30;;;;;;;;;;5071975;28;20218;-90
2023/07/11 07:18:34;;;;;;;7.22;3.40;;;;;;;;;;5057507;28;20179;-91
2023/07/11 07:21:14;;;;;;;;;;;;;;;;;;;;;
2023/07/11 07:24:07;;;;;;;5.57;2.95;;;;;;;;;;5075352;28;20283;-90
2023/07/11 07:26:42;;;;;;;6.70;3.40;;;;;;;;;;5057445;28;20191;-91
2023/07/11 07:29:11;;;;;;;7.18;2.90;;;;;;;;;;5057133;28;20260;-92
2023/07/11 07:32:14;;;;;;;8.48;3.80;;;;;;;;;;5057304;28;20183;-92
2023/07/11 07:40:57;;;;;;;7.45;3.65;;;;;;;;;;4985952;28;20189;-91
2023/07/11 07:43:26;;;;;;;13.82;3.60;;;;;;;;;;5046833;28;20266;-92
2023/07/11 07:45:59;;;;;;;9.52;3.40;;;;;;;;;;5057100;28;20179;-92
2023/07/11 07:48:26;;;;;;;9.93;3.85;;;;;;;;;;5057384;28;20201;-92
2023/07/11 07:51:02;;;;;;;9.45;3.63;;;;;;;;;;5056903;28;20289;-87
2023/07/11 07:53:50;;;;;;;7.30;3.22;;;;;;;;;;5074787;28;20168;-89
2023/07/11 07:56:21;;;;;;;6.93;3.88;;;;;;;;;;5057330;28;20268;-90
2023/07/11 07:58:48;;;;;;;8.32;3.50;;;;;;;;;;5056510;28;20260;-87
2023/07/11 08:01:53;;;;;;;;;;;;;;;;;;;;;
2023/07/11 08:04:19;;;;;;;9.23;3.30;;;;;;;;;;5049636;28;20187;-90
2023/07/11 08:09:56;;;;;;;6.78;3.10;;;;;;;;;;4982128;28;20268;-90
2023/07/11 08:12:44;;;;;;;9.25;3.33;;;;;;;;;;5040252;28;20175;-90
2023/07/11 08:18:15;;;;;;;8.38;3.47;;;;;;;;;;5061198;28;20203;-90
2023/07/11 08:24:01;;;;;;;5.82;2.92;;;;;;;;;;5068039;28;20225;-88
2023/07/11 08:29:50;;;;;;;;;;;;;;;;;;;;;
2023/07/11 08:35:23;;;;;;;6.75;3.10;;;;;;;;;;5055765;28;20225;-91
2023/07/11 08:41:06;;;;;;;7.20;2.70;;;;;;;;;;5034556;28;20211;-89
2023/07/11 08:43:57;;;;;;;6.85;2.50;;;;;;;;;;4978451;28;20193;-91
2023/07/11 08:55:59;;;;;;;5.95;2.58;;;;;;;;;;5017518;28;20241;-91
2023/07/11 08:58:55;;;;;;;;;;;;;;;;;;;;;
2023/07/11 09:01:29;;;;;;;5.45;2.75;;;;;;;;;;5043496;28;20183;-91
2023/07/11 09:04:20;;;;;;;7.15;2.53;;;;;;;;;;5036246;28;20180;-92
2023/07/11 09:07:16;;;;;;;6.70;2.80;;;;;;;;;;5035935;28;20195;-89
2023/07/11 09:10:38;;;;;;;8.18;2.65;;;;;;;;;;5016524;28;20235;-91
2023/07/11 09:13:04;;;;;;;5.57;2.60;;;;;;;;;;5032526;28;20184;-90
2023/07/11 09:16:15;;;;;;;7.53;2.75;;;;;;;;;;5036425;28;20175;-90
2023/07/11 09:22:03;;;;;;;6.68;2.92;;;;;;;;;;5070190;28;20170;-91
2023/07/11 09:24:35;;;;;;;4.03;2.35;;;;;;;;;;5053388;28;20278;-93
2023/07/11 09:30:32;;;;;;;6.00;2.55;;;;;;;;;;5022824;28;20201;-91
2023/07/11 09:33:10;;;;;;;6.43;2.55;;;;;;;;;;4990107;28;20177;-93
2023/07/11 09:36:00;;;;;;;7.32;2.20;;;;;;;;;;5046876;28;20195;-92
2023/07/11 09:41:37;;;;;;;7.97;2.20;;;;;;;;;;5070303;28;20169;-92
2023/07/11 09:44:15;;;;;;;5.45;2.42;;;;;;;;;;5059286;28;20175;-92
2023/07/11 09:52:56;;;;;;;8.38;2.58;;;;;;;;;;5084589;28;20189;-92
2023/07/11 09:55:36;;;;;;;3.92;2.45;;;;;;;;;;5070542;28;20191;-92
2023/07/11 10:04:35;;;;;;;5.80;2.40;;;;;;;;;;5086976;28;20171;-93
2023/07/11 10:07:12;;;;;;;9.00;2.38;;;;;;;;;;5083117;28;20171;-91
2023/07/11 10:13:06;;;;;;;4.70;2.25;;;;;;;;;;5075961;28;20190;-93
2023/07/11 10:28:38;;;;;;;;;;;;;;;;;;;;;
2023/07/11 10:31:30;;;;;;;6.82;2.40;;;;;;;;;;4980739;28;20293;-92
2023/07/11 10:43:51;;;;;;;7.35;2.33;;;;;;;;;;4964417;29;20265;-92
2023/07/11 10:46:41;;;;;;;4.75;2.60;;;;;;;;;;4947621;29;20259;-91
2023/07/11 10:49:18;;;;;;;6.25;2.53;;;;;;;;;;4956344;29;20184;-92
2023/07/11 10:52:16;;;;;;;4.78;2.50;;;;;;;;;;4958417;28;20194;-92
2023/07/11 11:04:16;;;;;;;3.85;2.60;;;;;;;;;;4964541;28;20194;-90
2023/07/11 11:07:08;;;;;;;6.45;2.80;;;;;;;;;;4949007;29;20175;-93
2023/07/11 11:12:56;;;;;;;8.00;3.13;;;;;;;;;;4967669;29;20183;-93
2023/07/11 11:15:47;;;;;;;5.65;2.83;;;;;;;;;;5060442;28;20267;-93
2023/07/11 11:21:36;;;;;;;5.20;2.50;;;;;;;;;;5081133;28;20193;-93
2023/07/11 11:24:10;;;;;;;5.85;2.97;;;;;;;;;;5062284;28;20182;-92
2023/07/11 11:26:49;;;;;;;4.28;2.78;;;;;;;;;;5044861;28;20247;-92
2023/07/11 11:29:23;;;;;;;8.38;2.80;;;;;;;;;;5051236;28;20200;-94
2023/07/11 11:32:06;;;;;;;6.93;2.95;;;;;;;;;;5043602;28;20225;-92
2023/07/11 11:34:36;;;;;;;5.03;2.65;;;;;;;;;;5062081;28;20270;-93
2023/07/11 11:43:28;;;;;;;8.10;2.90;;;;;;;;;;5074063;28;20770;-93
2023/07/11 11:46:08;;;;;;;6.53;2.53;;;;;;;;;;5064740;28;20210;-93
2023/07/11 11:54:54;;;;;;;8.40;2.80;;;;;;;;;;4986641;28;20346;-93
2023/07/11 11:57:39;;;;;;;5.90;2.70;;;;;;;;;;4996745;28;20310;-92
2023/07/11 12:03:48;;;;;;;5.53;2.60;;;;;;;;;;5007686;28;20232;-93
2023/07/11 12:16:21;;;;;;;5.07;2.60;;;;;;;;;;4974641;28;20191;-93
2023/07/11 12:18:34;;;;;;;5.88;2.70;;;;;;;;;;5057224;28;20172;-91
2023/07/11 12:21:16;;;;;;;3.72;2.47;;;;;;;;;;5064582;28;20183;-92
2023/07/11 12:24:04;;;;;;;4.65;2.88;;;;;;;;;;5059918;28;20242;-91
2023/07/11 12:27:09;;;;;;;5.65;3.25;;;;;;;;;;5073738;28;20219;-91
2023/07/11 12:32:31;;;;;;;7.40;2.88;;;;;;;;;;5023203;28;20174;-93
2023/07/11 12:35:15;;;;;;;5.10;2.63;;;;;;;;;;5000969;28;20182;-92
2023/07/11 12:40:59;;;;;;;4.95;2.65;;;;;;;;;;5041217;28;20194;-87
2023/07/11 12:43:49;;;;;;;4.15;2.60;;;;;;;;;;5033478;28;20188;-88
2023/07/11 12:46:31;;;;;;;6.63;2.67;;;;;;;;;;5027631;28;20180;-88
2023/07/11 12:49:03;;;;;;;7.97;2.33;;;;;;;;;;5034867;28;20179;-86
2023/07/11 12:51:34;;;;;;;6.00;2.53;;;;;;;;;;5033675;28;20208;-88
2023/07/11 12:54:11;;;;;;;5.05;2.92;;;;;;;;;;5032901;28;20184;-88
2023/07/11 12:56:44;;;;;;;9.93;2.95;;;;;;;;;;5036933;28;20179;-87
2023/07/11 12:59:48;;;;;;;7.60;2.92;;;;;;;;;;5041021;28;20183;-88
2023/07/11 13:02:40;;;;;;;4.50;2.55;;;;;;;;;;5042636;28;20202;-92
2023/07/11 13:05:14;;;;;;;7.63;2.83;;;;;;;;;;5026943;28;20198;-89
2023/07/11 13:07:51;;;;;;;5.78;2.90;;;;;;;;;;5049632;28;20183;-91
2023/07/11 13:10:26;;;;;;;7.57;2.83;;;;;;;;;;5064988;28;20266;-91
2023/07/11 13:12:55;;;;;;;6.20;2.53;;;;;;;;;;5041085;28;20178;-90
2023/07/11 13:15:32;;;;;;;6.18;3.13;;;;;;;;;;5057182;28;20183;-89
2023/07/11 13:18:05;;;;;;;5.32;3.20;;;;;;;;;;5036633;28;20204;-91
2023/07/11 13:20:38;;;;;;;4.25;2.70;;;;;;;;;;5065920;28;20175;-90
2023/07/11 13:23:05;;;;;;;4.75;2.50;;;;;;;;;;5057642;28;20189;-90
2023/07/11 13:25:35;;;;;;;6.82;3.28;;;;;;;;;;5059276;28;20224;-92
2023/07/11 13:28:25;;;;;;;3.95;2.85;;;;;;;;;;5054041;28;20223;-89
2023/07/11 13:31:01;;;;;;;6.30;2.88;;;;;;;;;;5042034;28;20273;-91
2023/07/11 13:33:44;;;;;;;4.95;2.70;;;;;;;;;;5047151;28;20214;-91
2023/07/11 13:41:55;;;;;;;6.40;2.60;;;;;;;;;;5047451;28;20226;-91
2023/07/11 13:47:22;;;;;;;5.03;2.65;;;;;;;;;;5055719;28;20210;-91
2023/07/11 13:50:30;;;;;;;6.72;2.60;;;;;;;;;;5040491;28;20200;-89
2023/07/11 13:53:04;;;;;;;6.00;2.72;;;;;;;;;;5051425;28;20192;-92
2023/07/11 13:55:37;;;;;;;5.22;2.53;;;;;;;;;;5051300;28;20175;-90
2023/07/11 13:58:15;;;;;;;6.55;2.40;;;;;;;;;;5058234;28;20180;-91
2023/07/11 14:00:52;;;;;;;5.25;2.85;;;;;;;;;;5058347;28;20187;-91
2023/07/11 14:03:20;;;;;;;8.70;2.75;;;;;;;;;;5052788;28;20202;-89
2023/07/11 14:06:16;;;;;;;5.82;2.92;;;;;;;;;;5043850;28;20234;-91
2023/07/11 14:09:02;;;;;;;6.53;2.67;;;;;;;;;;5045606;28;20193;-90
2023/07/11 14:11:31;;;;;;;6.47;2.95;;;;;;;;;;5042360;28;20200;-89
2023/07/11 14:14:06;;;;;;;5.80;3.20;;;;;;;;;;5040433;28;20252;-89
2023/07/11 14:16:32;;;;;;;6.28;2.70;;;;;;;;;;5037786;28;20316;-90
2023/07/11 14:19:20;;;;;;;4.43;2.60;;;;;;;;;;5035375;28;20184;-89
2023/07/11 14:21:51;;;;;;;3.92;2.72;;;;;;;;;;5039992;28;20832;-90
2023/07/11 14:24:18;;;;;;;5.57;2.90;;;;;;;;;;5040031;28;20180;-90
2023/07/11 14:26:44;;;;;;;9.60;2.90;;;;;;;;;;5024758;28;20231;-91
2023/07/11 14:29:22;;;;;;;5.50;2.65;;;;;;;;;;5037199;28;20208;-91
2023/07/11 14:32:16;;;;;;;5.05;2.85;;;;;;;;;;5037667;28;20203;-91
2023/07/11 14:35:00;;;;;;;4.05;2.38;;;;;;;;;;5037243;28;20291;-92
2023/07/11 14:37:27;;;;;;;7.30;2.88;;;;;;;;;;5053088;28;20330;-90
2023/07/11 14:39:55;;;;;;;6.95;2.95;;;;;;;;;;5055036;28;20183;-89
2023/07/11 14:42:26;;;;;;;5.63;3.00;;;;;;;;;;5054505;28;20187;-88
2023/07/11 14:44:53;;;;;;;4.80;2.88;;;;;;;;;;5048023;28;20203;-90
2023/07/11 14:47:21;;;;;;;6.03;3.03;;;;;;;;;;5057428;28;20203;-90
2023/07/11 14:49:48;;;;;;;7.90;3.30;;;;;;;;;;5036652;28;20211;-90
2023/07/11 14:52:26;;;;;;;7.05;3.10;;;;;;;;;;5035617;28;20201;-90
2023/07/11 14:54:56;;;;;;;5.50;2.80;;;;;;;;;;5049850;28;20185;-91
2023/07/11 14:57:25;;;;;;;7.20;3.30;;;;;;;;;;5044947;28;20184;-90
2023/07/11 14:59:54;;;;;;;5.15;2.97;;;;;;;;;;5038726;28;20185;-90
2023/07/11 15:02:22;;;;;;;5.95;3.15;;;;;;;;;;5039674;28;20274;-88
2023/07/11 15:04:51;;;;;;;5.63;2.90;;;;;;;;;;5053780;28;20184;-89
2023/07/11 15:07:17;;;;;;;6.88;3.17;;;;;;;;;;5053961;28;20172;-92
2023/07/11 15:09:43;;;;;;;4.50;2.67;;;;;;;;;;5050675;28;20239;-89
2023/07/11 15:12:20;;;;;;;8.07;3.13;;;;;;;;;;5052779;28;20175;-91
2023/07/11 15:14:48;;;;;;;6.00;2.80;;;;;;;;;;5054594;28;20195;-91
2023/07/11 15:17:23;;;;;;;9.43;3.25;;;;;;;;;;5054022;28;20182;-89
2023/07/11 15:19:49;;;;;;;7.57;3.50;;;;;;;;;;5052288;28;20175;-89
2023/07/11 15:22:26;;;;;;;7.28;3.20;;;;;;;;;;5054439;28;20266;-91
2023/07/11 15:24:52;;;;;;;6.15;3.08;;;;;;;;;;5051143;28;20182;-90
2023/07/11 15:27:24;;;;;;;4.80;2.95;;;;;;;;;;5053582;28;20239;-90
2023/07/11 15:29:57;;;;;;;4.10;2.80;;;;;;;;;;5046980;28;20238;-90
2023/07/11 15:32:25;;;;;;;6.35;3.05;;;;;;;;;;5051861;28;20179;-89
2023/07/11 15:34:54;;;;;;;7.43;3.22;;;;;;;;;;5054414;28;20205;-91
2023/07/11 15:37:20;;;;;;;9.38;3.42;;;;;;;;;;5053819;28;20180;-89
2023/07/11 15:39:46;;;;;;;5.32;2.90;;;;;;;;;;5054539;28;20179;-90
2023/07/11 15:42:22;;;;;;;6.03;3.30;;;;;;;;;;5053959;28;20176;-91
2023/07/11 15:44:51;;;;;;;5.00;3.33;;;;;;;;;;5054219;28;20254;-88
2023/07/11 15:47:17;;;;;;;8.82;3.03;;;;;;;;;;5053940;28;20180;-91
2023/07/11 15:49:46;;;;;;;8.20;3.38;;;;;;;;;;5039080;28;20173;-91
2023/07/11 15:52:15;;;;;;;6.80;3.35;;;;;;;;;;5034165;28;20172;-91
2023/07/11 15:54:41;;;;;;;5.85;2.72;;;;;;;;;;5034325;28;20207;-90
2023/07/11 15:57:25;;;;;;;6.95;3.30;;;;;;;;;;5047473;28;20176;-91
2023/07/11 15:59:54;;;;;;;5.68;3.35;;;;;;;;;;5054733;28;20182;-92
2023/07/11 16:02:27;;;;;;;10.07;3.40;;;;;;;;;;5056376;28;20184;-91
2023/07/11 16:05:00;;;;;;;6.82;3.08;;;;;;;;;;5054954;28;20176;-91
2023/07/11 16:07:26;;;;;;;7.32;3.30;;;;;;;;;;5058500;28;20180;-91
2023/07/11 16:09:55;;;;;;;5.57;3.00;;;;;;;;;;5040549;28;20203;-92
2023/07/11 16:12:21;;;;;;;7.43;2.80;;;;;;;;;;5053971;28;20177;-91
2023/07/11 16:14:47;;;;;;;6.45;4.32;;;;;;;;;;5032867;28;20177;-91
2023/07/11 16:17:36;;;;;;;5.68;2.95;;;;;;;;;;5053932;28;20273;-92
2023/07/11 16:20:11;;;;;;;5.45;3.10;;;;;;;;;;5034840;28;20192;-92
2023/07/11 16:22:42;;;;;;;6.95;3.05;;;;;;;;;;5034160;28;20171;-92
2023/07/11 16:25:12;;;;;;;6.82;3.22;;;;;;;;;;5035630;28;20176;-91
2023/07/11 16:27:42;;;;;;;9.23;2.90;;;;;;;;;;5017163;28;20213;-90
2023/07/11 16:30:20;;;;;;;6.55;3.40;;;;;;;;;;5035293;28;20226;-90
2023/07/11 16:32:49;;;;;;;6.68;2.95;;;;;;;;;;5037234;28;20211;-89
2023/07/11 16:35:16;;;;;;;5.30;2.80;;;;;;;;;;5020832;28;20172;-90
2023/07/11 16:37:49;;;;;;;4.22;2.80;;;;;;;;;;5038191;28;20182;-90
2023/07/11 16:40:22;;;;;;;5.20;3.15;;;;;;;;;;5038660;28;20199;-90
2023/07/11 16:42:49;;;;;;;5.05;2.97;;;;;;;;;;5038530;28;20176;-91
2023/07/11 16:45:19;;;;;;;5.38;3.03;;;;;;;;;;5039887;28;20270;-91
2023/07/11 16:47:52;;;;;;;6.65;3.20;;;;;;;;;;5038570;28;20262;-91
2023/07/11 16:50:38;;;;;;;5.90;2.85;;;;;;;;;;5038589;28;20200;-90
2023/07/11 16:53:24;;;;;;;5.13;2.80;;;;;;;;;;5036717;28;20207;-90
2023/07/11 16:55:50;;;;;;;7.57;3.08;;;;;;;;;;5037073;28;20179;-90
2023/07/11 16:58:19;;;;;;;5.78;2.92;;;;;;;;;;5036548;28;20255;-90
2023/07/11 17:01:09;;;;;;;5.50;2.65;;;;;;;;;;5036317;28;20218;-91
2023/07/11 17:03:35;;;;;;;4.93;2.75;;;;;;;;;;5024251;28;20208;-90
2023/07/11 17:09:16;;;;;;;6.72;3.00;;;;;;;;;;4934470;28;20227;-90
2023/07/11 17:21:00;;;;;;;4.72;2.40;;;;;;;;;;4954501;28;20178;-91
2023/07/11 17:23:47;;;;;;;6.53;2.85;;;;;;;;;;4933537;29;20402;-90
2023/07/11 17:26:14;;;;;;;5.45;2.40;;;;;;;;;;4966798;28;20220;-91
2023/07/11 17:29:00;;;;;;;6.60;2.90;;;;;;;;;;5038149;28;20215;-91
2023/07/11 17:31:50;;;;;;;5.55;2.88;;;;;;;;;;5040126;28;20218;-90
2023/07/11 17:34:19;;;;;;;4.28;2.58;;;;;;;;;;5068056;28;20172;-92
2023/07/11 17:36:47;;;;;;;4.60;2.95;;;;;;;;;;5050996;28;20183;-91
2023/07/11 17:39:17;;;;;;;7.47;3.10;;;;;;;;;;5055684;28;20167;-89
2023/07/11 17:42:05;;;;;;;4.93;3.47;;;;;;;;;;5057695;28;20265;-90
2023/07/11 17:44:31;;;;;;;5.90;3.35;;;;;;;;;;5047901;28;20179;-91
2023/07/11 17:46:57;;;;;;;7.00;3.70;;;;;;;;;;5058165;28;20190;-91
2023/07/11 17:49:25;;;;;;;7.47;3.70;;;;;;;;;;5050246;28;20207;-91
2023/07/11 17:51:54;;;;;;;8.65;3.72;;;;;;;;;;5059584;28;20222;-90
2023/07/11 17:54:20;;;;;;;6.30;3.50;;;;;;;;;;5059149;28;20176;-91
2023/07/11 17:56:51;;;;;;;8.77;3.33;;;;;;;;;;5047394;28;20172;-90
2023/07/11 17:59:17;;;;;;;6.40;3.67;;;;;;;;;;5059151;28;20175;-90
2023/07/11 18:01:46;;;;;;;6.97;3.65;;;;;;;;;;5058349;28;20201;-90